Atascadero, CA

9:26 PM PDT on May 26, 2017 (GMT -0700)
Just south of Atascadero High School | | Change Station

Elev 922 ft 35.48 °N, 120.67 °W | Updated 24 seconds ago

Partly Cloudy
Partly Cloudy
51.3 °F
Feels Like 51.3 °F
N
0.0
Wind Variable Wind from WNW

Today
High -- | Low -- °F
--% Chance of Precip.
Yesterday
High -- | Low -- °F
Precip. -- in
Pressure 29.99 in
Visibility 10.0 miles
Clouds Clear
Dew Point 45 °F
Humidity 79%
Rainfall 0.00 in
Snow Depth Not available.
5:50 AM 8:08 PM
Waxing Crescent, 3% visible
METAR KPRB 270353Z AUTO 19006KT 10SM CLR 14/08 A3000 RMK AO2 SLP155 T01390078 TSNO
Pressure 29.99 in
Visibility 10.0 miles
Clouds Clear
Dew Point 45 °F
Humidity 79%
Rainfall 0.00 in
Snow Depth Not available.
5:50 AM 8:08 PM
Waxing Crescent, 3% visible
METAR KPRB 270353Z AUTO 19006KT 10SM CLR 14/08 A3000 RMK AO2 SLP155 T01390078 TSNO

Get Severe Weather Alerts

Thanks for signing up!

Be on the lookout for a verification email in your inbox.

You'll start receiving the daily forecast at 6 AM.

×

10-Day Weather Forecast

Almanac

Astronomy

May. 26, 2017 Rise Set
Actual Time
Civil Twilight
Nautical Twilight
Astronomical Twilight
Moon
Length of Visible Light
Length of Day
Tomorrow will be .
, % of the Moon is Illuminated

Today's Extremes

State Highs State Lows

Community

WunderPhotos

Category 6

Welcome to Category 6. This is the collective home for Weather Underground's featured writeups by Dr. Jeff Masters (right), Bob Henson (left), Chris Burt, and other regular contributors.

Nearby

Air Quality

  Air Quality AQ Index Pollutant
Not available.

Snow Depth

Station Depth Elevation

Earthquake Activity

City Distance Mag. Time & Date
Minimum magnitude displayed is 2.5.

Coastal Water Temperatures

Place Temperature

Stations

Nearby Weather Stations

Station Location Temp. Windchill Dew Point Humidity Wind Precip. Elev Updated Type
                   

Watches & Warnings

There are currently no watches in effect.